Time;durP1;ratioP1;P1;durP2;ratioP2;P2;SDS_P1;SDS_P2;PMS_P1;PMS_P2;Temp;Humidity;BMP_temperature;BMP_pressure;BME280_temperature;BME280_humidity;BME280_pressure;Samples;Min_cycle;Max_cycle;Signal;HPM_P1;HPM_P2
2022/01/08 00:01:00;;;;;;;83.40;39.92;;;;;;;-5.67;78.58;100762.98;1391827;89;21328;-82
2022/01/08 00:03:26;;;;;;;74.12;34.33;;;;;;;-5.71;78.39;100761.38;1430528;89;21430;-84
2022/01/08 00:05:53;;;;;;;71.05;34.98;;;;;;;-5.71;78.56;100756.22;1418532;88;22264;-83
2022/01/08 00:08:19;;;;;;;87.00;36.75;;;;;;;-5.71;78.65;100753.64;1447293;87;21347;-84
2022/01/08 00:10:45;;;;;;;75.50;34.27;;;;;;;-5.70;78.86;100756.20;1422690;86;22320;-84
2022/01/08 00:13:12;;;;;;;86.65;38.70;;;;;;;-5.67;78.87;100752.67;1446260;87;21311;-84
2022/01/08 00:15:38;;;;;;;127.97;55.50;;;;;;;-5.66;78.45;100747.94;1418562;88;21424;-84
2022/01/08 00:18:04;;;;;;;83.90;41.58;;;;;;;-5.66;78.46;100747.94;1438516;88;21311;-84
2022/01/08 00:20:30;;;;;;;99.90;42.88;;;;;;;-5.70;77.88;100745.02;1434416;88;21518;-84
2022/01/08 00:22:57;;;;;;;78.67;35.38;;;;;;;-5.74;77.82;100751.14;1474637;86;22352;-85
2022/01/08 00:25:23;;;;;;;75.03;36.35;;;;;;;-5.76;78.09;100749.03;1424461;86;21341;-86
2022/01/08 00:27:49;;;;;;;75.60;36.40;;;;;;;-5.83;77.93;100738.47;1440057;86;22258;-85
2022/01/08 00:30:16;;;;;;;109.45;47.03;;;;;;;-5.95;78.40;100743.51;1408545;88;21435;-84
2022/01/08 00:32:42;;;;;;;83.80;40.00;;;;;;;-5.98;78.23;100741.00;1434897;87;21622;-86
2022/01/08 00:35:10;;;;;;;90.97;43.58;;;;;;;-5.97;78.79;100748.69;1440566;87;21480;-85
2022/01/08 00:37:37;;;;;;;84.17;39.40;;;;;;;-5.94;78.96;100749.06;1463177;87;21442;-86
2022/01/08 00:40:10;;;;;;;91.57;39.83;;;;;;;-5.93;79.37;100752.03;1476571;87;22036;-85
2022/01/08 00:42:37;;;;;;;174.68;72.10;;;;;;;-5.87;79.53;100749.72;1448970;87;21606;-85
2022/01/08 00:45:06;;;;;;;270.97;100.82;;;;;;;-5.82;79.33;100749.17;1459393;88;21485;-84
2022/01/08 00:47:32;;;;;;;90.53;41.37;;;;;;;-5.77;79.78;100747.34;1441182;87;21531;-85
2022/01/08 00:49:59;;;;;;;151.37;62.48;;;;;;;-5.70;79.06;100745.02;1445953;88;21466;-85
2022/01/08 00:52:25;;;;;;;215.72;88.27;;;;;;;-5.66;78.39;100742.78;1435305;88;21436;-84
2022/01/08 00:54:53;;;;;;;168.07;69.05;;;;;;;-5.64;78.86;100734.98;1419813;90;21473;-85
2022/01/08 00:57:19;;;;;;;98.30;43.90;;;;;;;-5.62;79.39;100732.78;1435343;89;21643;-85
2022/01/08 00:59:45;;;;;;;99.17;45.58;;;;;;;-5.57;79.07;100722.37;1430916;89;21459;-85
2022/01/08 01:02:11;;;;;;;88.95;38.98;;;;;;;-5.55;79.12;100717.58;1429999;89;21532;-85
2022/01/08 01:04:37;;;;;;;82.35;40.65;;;;;;;-5.51;78.88;100715.31;1425583;89;21502;-85
2022/01/08 01:07:03;;;;;;;85.30;38.78;;;;;;;-5.46;79.40;100707.02;1427993;89;21448;-85
2022/01/08 01:09:30;;;;;;;97.15;38.88;;;;;;;-5.38;79.12;100702.09;1430759;89;21632;-84
2022/01/08 01:11:58;;;;;;;86.50;36.50;;;;;;;-5.34;79.02;100705.02;1430474;88;21543;-85
2022/01/08 01:14:26;;;;;;;67.70;34.55;;;;;;;-5.30;79.15;100697.58;1413260;90;21440;-84
2022/01/08 01:16:53;;;;;;;75.47;35.60;;;;;;;-5.27;78.89;100701.37;1429136;90;21525;-84
2022/01/08 01:19:20;;;;;;;75.90;34.80;;;;;;;-5.20;78.91;100696.91;1437421;89;21608;-84
2022/01/08 01:21:46;;;;;;;70.20;36.17;;;;;;;-5.17;78.86;100690.38;1450254;87;21495;-83
2022/01/08 01:24:18;;;;;;;73.28;34.43;;;;;;;-5.19;78.53;100687.82;1435991;88;21459;-85
2022/01/08 01:27:07;;;;;;;75.65;37.53;;;;;;;-5.21;78.21;100684.42;1463067;88;21452;-85
2022/01/08 01:29:28;;;;;;;137.05;58.48;;;;;;;-5.20;78.24;100680.98;1446447;89;22934;-85
2022/01/08 01:43:05;;;;;;;72.42;35.55;;;;;;;-5.38;78.06;100665.55;1390478;92;22338;-85
2022/01/08 01:47:56;;;;;;;68.55;37.63;;;;;;;-5.58;79.29;100677.68;1451131;90;22052;-85
2022/01/08 01:50:22;;;;;;;70.15;34.98;;;;;;;-5.57;79.97;100674.20;1390906;89;21430;-86
2022/01/08 01:52:49;;;;;;;63.85;32.23;;;;;;;-5.53;80.20;100666.78;1345285;91;22303;-85
2022/01/08 01:55:15;;;;;;;70.47;37.35;;;;;;;-5.49;80.20;100664.55;1395563;89;22325;-86
2022/01/08 01:57:41;;;;;;;66.15;35.38;;;;;;;-5.46;80.10;100656.72;1377312;91;21501;-85
2022/01/08 02:00:09;;;;;;;70.97;34.78;;;;;;;-5.45;79.79;100658.41;1378834;91;22163;-86
2022/01/08 02:02:35;;;;;;;67.08;34.43;;;;;;;-5.49;80.67;100653.38;1382354;91;21349;-87
2022/01/08 02:05:01;;;;;;;67.97;32.73;;;;;;;-5.42;80.08;100652.77;1379086;91;21631;-86
2022/01/08 02:07:28;;;;;;;70.35;34.83;;;;;;;-5.40;80.59;100649.71;1393363;92;21356;-86
2022/01/08 02:09:56;;;;;;;70.12;34.95;;;;;;;-5.40;80.86;100641.97;1407762;91;21395;-84
2022/01/08 02:12:22;;;;;;;71.28;34.98;;;;;;;-5.35;80.82;100640.09;1473816;89;21495;-85
2022/01/08 02:14:49;;;;;;;69.67;34.40;;;;;;;-5.35;81.26;100637.52;1458723;89;21349;-84
2022/01/08 02:17:16;;;;;;;67.17;34.40;;;;;;;-5.36;81.58;100634.09;1422344;90;21307;-85
2022/01/08 02:19:43;;;;;;;67.60;32.55;;;;;;;-5.37;81.77;100627.25;1397147;91;22552;-85
2022/01/08 02:22:15;;;;;;;66.55;33.50;;;;;;;-5.45;82.68;100630.02;1375454;91;21504;-86
2022/01/08 02:24:39;;;;;;;64.72;31.33;;;;;;;-5.48;83.09;100630.56;1395616;90;21502;-85
2022/01/08 02:27:05;;;;;;;71.00;33.65;;;;;;;-5.43;83.11;100632.58;1411259;90;21607;-84
2022/01/08 02:29:32;;;;;;;62.90;31.52;;;;;;;-5.38;83.10;100635.02;1351042;91;21472;-84
2022/01/08 02:32:06;;;;;;;67.08;31.23;;;;;;;-5.38;83.56;100628.15;1370654;89;21428;-84
2022/01/08 02:34:34;;;;;;;66.72;33.63;;;;;;;-5.38;83.53;100633.31;1376298;90;21467;-85
2022/01/08 02:37:02;;;;;;;64.12;33.38;;;;;;;-5.30;82.99;100640.81;1370171;91;21373;-84
2022/01/08 02:39:30;;;;;;;58.00;31.23;;;;;;;-5.24;83.25;100633.78;1381902;90;21373;-84
2022/01/08 02:41:59;;;;;;;60.95;30.65;;;;;;;-5.18;83.02;100637.89;1382669;89;21520;-84
2022/01/08 02:44:27;;;;;;;57.17;28.45;;;;;;;-5.11;83.03;100642.01;1371425;90;21435;-84
2022/01/08 02:46:54;;;;;;;50.40;24.80;;;;;;;-5.09;83.05;100635.08;1379865;89;22457;-85
2022/01/08 02:49:23;;;;;;;48.90;28.83;;;;;;;-5.09;83.34;100632.50;1334761;90;21295;-84
2022/01/08 02:51:51;;;;;;;54.98;28.92;;;;;;;-5.10;83.66;100632.52;1396237;89;21393;-85
2022/01/08 02:54:18;;;;;;;51.98;25.77;;;;;;;-5.13;84.11;100627.45;1417872;86;21502;-84
2022/01/08 02:56:48;;;;;;;59.38;29.50;;;;;;;-5.11;84.17;100625.69;1416288;87;22334;-84
2022/01/08 02:59:15;;;;;;;77.27;39.90;;;;;;;-5.06;83.63;100628.53;1394989;89;21331;-84
2022/01/08 03:01:42;;;;;;;61.85;32.35;;;;;;;-4.94;83.42;100630.36;1391958;87;21452;-83
2022/01/08 03:04:09;;;;;;;61.08;31.23;;;;;;;-4.91;83.33;100618.20;1378805;91;21399;-83
2022/01/08 03:06:36;;;;;;;57.85;30.00;;;;;;;-4.91;83.17;100624.66;1383944;91;21461;-82
2022/01/08 03:09:04;;;;;;;60.55;29.85;;;;;;;-4.86;82.99;100610.30;1378390;91;21305;-83
2022/01/08 03:11:30;;;;;;;60.78;29.72;;;;;;;-4.79;82.86;100611.38;1371961;91;21358;-84
2022/01/08 03:13:57;;;;;;;60.43;32.75;;;;;;;-4.71;82.48;100607.28;1366511;91;22377;-84
2022/01/08 03:16:25;;;;;;;102.25;50.98;;;;;;;-4.62;82.59;100603.13;1371805;90;21422;-84
2022/01/08 03:18:51;;;;;;;80.40;42.70;;;;;;;-4.53;82.54;100591.66;1383910;89;21347;-83
2022/01/08 03:21:21;;;;;;;66.50;35.45;;;;;;;-4.45;82.50;100579.35;1332670;91;22331;-84
2022/01/08 03:23:59;;;;;;;72.25;36.63;;;;;;;-4.37;81.98;100584.28;1343259;91;21401;-85
2022/01/08 03:26:26;;;;;;;77.42;40.33;;;;;;;-4.28;81.81;100589.61;1388337;89;22260;-84
2022/01/08 03:28:53;;;;;;;58.55;32.28;;;;;;;-4.19;81.65;100581.09;1399629;90;21415;-82
2022/01/08 03:31:20;;;;;;;65.28;33.15;;;;;;;-4.12;81.55;100589.02;1367715;92;21373;-84
2022/01/08 03:33:46;;;;;;;67.92;37.63;;;;;;;-4.12;80.87;100583.02;1347352;92;21399;-84
2022/01/08 03:36:16;;;;;;;69.55;37.40;;;;;;;-4.09;80.68;100577.29;1371420;90;21384;-86
2022/01/08 03:38:43;;;;;;;65.10;32.17;;;;;;;-4.03;80.70;100574.95;1365530;90;21370;-85
2022/01/08 03:41:09;;;;;;;77.40;41.85;;;;;;;-3.99;80.34;100581.72;1366332;89;21518;-85
2022/01/08 03:43:36;;;;;;;71.05;35.55;;;;;;;-3.94;80.38;100576.37;1351194;90;21394;-84
2022/01/08 03:46:05;;;;;;;68.85;35.52;;;;;;;-3.93;80.03;100584.55;1399419;89;22820;-85
2022/01/08 03:48:45;;;;;;;64.22;31.68;;;;;;;-3.91;80.02;100582.77;1464205;87;21626;-85
2022/01/08 03:51:01;;;;;;;64.00;33.05;;;;;;;-3.97;79.70;100581.66;1441957;88;22441;-85
2022/01/08 03:55:54;;;;;;;67.08;32.93;;;;;;;-4.01;80.44;100577.05;1446878;88;22404;-85
2022/01/08 03:58:20;;;;;;;62.73;32.38;;;;;;;-3.96;80.64;100573.02;1433978;88;21481;-84
2022/01/08 04:00:48;;;;;;;67.70;35.40;;;;;;;-3.91;80.91;100572.42;1432407;88;21665;-84
2022/01/08 04:03:18;;;;;;;57.90;31.42;;;;;;;-3.83;80.42;100572.98;1442666;88;21487;-84
2022/01/08 04:06:06;;;;;;;64.42;32.25;;;;;;;-3.78;80.13;100568.50;1447708;88;21502;-85
2022/01/08 04:08:32;;;;;;;64.03;32.35;;;;;;;-3.72;80.03;100566.16;1437785;87;21413;-85
2022/01/08 04:10:59;;;;;;;64.55;31.30;;;;;;;-3.66;80.05;100565.48;1451910;88;21486;-84
2022/01/08 04:13:29;;;;;;;56.48;32.88;;;;;;;-3.60;79.88;100568.30;1456527;86;22455;-83
2022/01/08 04:18:19;;;;;;;58.33;30.88;;;;;;;-3.52;79.47;100571.92;1439616;88;21686;-83
2022/01/08 04:23:32;;;;;;;62.45;33.20;;;;;;;-3.47;79.12;100570.86;1426786;88;22383;-84
2022/01/08 04:25:58;;;;;;;61.75;32.15;;;;;;;-3.44;79.11;100566.02;1444128;88;21363;-84
2022/01/08 04:28:25;;;;;;;59.60;32.85;;;;;;;-3.44;78.81;100567.31;1452671;88;21619;-84
2022/01/08 04:30:51;;;;;;;66.20;36.20;;;;;;;-3.45;78.69;100565.64;1433090;89;23574;-84
2022/01/08 04:33:17;;;;;;;64.15;36.55;;;;;;;-3.47;78.78;100570.02;1410031;91;21444;-83
2022/01/08 04:35:43;;;;;;;75.95;40.80;;;;;;;-3.49;78.94;100573.09;1403042;90;21429;-83
2022/01/08 04:38:11;;;;;;;670.88;298.27;;;;;;;-3.45;78.66;100570.81;1385930;93;22426;-84
2022/01/08 04:40:40;;;;;;;360.35;122.47;;;;;;;-3.45;78.68;100562.59;1396227;91;21482;-84
2022/01/08 04:43:07;;;;;;;94.42;40.55;;;;;;;-3.46;78.60;100560.05;1393849;90;21687;-85
2022/01/08 04:45:33;;;;;;;95.30;42.88;;;;;;;-3.53;78.34;100565.91;1433780;89;21489;-85
2022/01/08 04:48:01;;;;;;;77.42;36.50;;;;;;;-3.63;78.73;100556.31;1428123;90;21622;-85
2022/01/08 04:50:29;;;;;;;117.20;47.95;;;;;;;-3.66;78.58;100559.01;1435321;89;22099;-86
2022/01/08 04:52:56;;;;;;;61.85;34.60;;;;;;;-3.70;78.95;100557.44;1444613;89;21481;-85
2022/01/08 04:55:23;;;;;;;56.28;32.17;;;;;;;-3.71;79.02;100557.48;1443725;90;21471;-84
2022/01/08 04:57:49;;;;;;;127.17;50.38;;;;;;;-3.78;79.23;100556.86;1414587;91;21678;-84
2022/01/08 05:00:18;;;;;;;64.55;35.40;;;;;;;-3.77;79.42;100556.41;1391435;92;21597;-85
2022/01/08 05:02:44;;;;;;;51.28;30.55;;;;;;;-3.77;79.77;100555.98;1455090;87;21509;-84
2022/01/08 05:05:11;;;;;;;56.08;32.88;;;;;;;-3.84;79.93;100551.06;1460187;88;21584;-85
2022/01/08 05:07:38;;;;;;;57.23;31.85;;;;;;;-3.89;80.60;100553.80;1439448;88;22397;-86
2022/01/08 05:10:06;;;;;;;56.00;31.37;;;;;;;-3.96;81.27;100553.63;1431053;88;21466;-85
2022/01/08 05:12:32;;;;;;;65.15;32.58;;;;;;;-3.91;81.50;100555.16;1440521;88;21533;-84
2022/01/08 05:15:01;;;;;;;57.75;32.58;;;;;;;-3.86;81.89;100548.52;1418337;89;21473;-83
2022/01/08 05:17:32;;;;;;;59.75;33.20;;;;;;;-3.83;81.49;100549.70;1447934;89;21576;-83
2022/01/08 05:19:58;;;;;;;110.60;48.75;;;;;;;-3.85;81.33;100545.05;1422019;90;21668;-83
2022/01/08 05:22:27;;;;;;;89.40;43.10;;;;;;;-3.80;81.05;100542.29;1439559;89;21532;-83
2022/01/08 05:24:52;;;;;;;78.37;38.00;;;;;;;-3.73;81.18;100538.16;1436852;89;21715;-85
2022/01/08 05:27:18;;;;;;;121.22;60.30;;;;;;;-3.69;81.66;100534.55;1430477;89;22611;-84
2022/01/08 05:29:46;;;;;;;204.80;83.80;;;;;;;-3.69;81.21;100532.41;1435792;88;21458;-84
2022/01/08 05:32:18;;;;;;;86.10;43.02;;;;;;;-3.58;81.39;100537.21;1466692;87;22499;-84
2022/01/08 05:34:47;;;;;;;74.35;40.73;;;;;;;-3.56;81.37;100540.59;1436796;88;21414;-84
2022/01/08 05:37:14;;;;;;;83.82;43.75;;;;;;;-3.51;80.99;100543.84;1392982;90;21624;-84
2022/01/08 05:39:41;;;;;;;108.63;50.23;;;;;;;-3.42;81.02;100539.65;1388105;90;22024;-85
2022/01/08 05:42:07;;;;;;;96.65;49.20;;;;;;;-3.33;80.92;100548.36;1443798;89;21437;-85
2022/01/08 05:44:34;;;;;;;131.63;59.48;;;;;;;-3.24;80.93;100548.02;1436403;89;21533;-84
2022/01/08 05:47:01;;;;;;;80.45;42.50;;;;;;;-3.19;80.80;100541.38;1454366;87;22345;-84
2022/01/08 05:49:27;;;;;;;82.50;42.08;;;;;;;-3.17;81.17;100540.86;1423716;89;21580;-84
2022/01/08 05:51:53;;;;;;;67.12;37.13;;;;;;;-3.15;80.28;100538.22;1439774;88;21585;-83
2022/01/08 05:54:20;;;;;;;72.85;38.13;;;;;;;-3.18;80.16;100534.84;1434483;89;21628;-82
2022/01/08 05:56:46;;;;;;;65.30;35.50;;;;;;;-3.21;80.04;100542.72;1429542;88;21475;-83
2022/01/08 05:59:12;;;;;;;68.55;38.33;;;;;;;-3.27;80.22;100538.23;1422312;90;22388;-83
2022/01/08 06:01:38;;;;;;;66.12;35.68;;;;;;;-3.25;80.16;100542.88;1415136;90;21473;-83
2022/01/08 06:04:04;;;;;;;63.80;32.88;;;;;;;-3.22;80.34;100540.20;1404981;90;21622;-82
2022/01/08 06:06:30;;;;;;;231.82;96.50;;;;;;;-3.14;80.62;100542.48;1445097;89;21458;-83
2022/01/08 06:08:56;;;;;;;211.40;93.42;;;;;;;-3.11;80.43;100536.73;1445182;89;21555;-82
2022/01/08 06:11:22;;;;;;;85.05;41.28;;;;;;;-3.08;80.12;100548.30;1441941;89;22273;-82
2022/01/08 06:13:49;;;;;;;70.37;38.28;;;;;;;-3.05;79.80;100555.08;1435116;89;21490;-82
2022/01/08 06:16:15;;;;;;;73.22;38.50;;;;;;;-3.00;80.10;100557.05;1443316;89;21452;-82
2022/01/08 06:18:44;;;;;;;68.57;34.85;;;;;;;-2.97;80.34;100547.88;1412450;91;21504;-82
2022/01/08 06:21:10;;;;;;;76.75;37.90;;;;;;;-2.93;79.99;100554.64;1407885;91;21401;-82
2022/01/08 06:23:36;;;;;;;140.18;61.50;;;;;;;-2.90;79.83;100563.58;1454525;88;22501;-82
2022/01/08 06:26:04;;;;;;;549.63;227.10;;;;;;;-2.88;79.45;100559.16;1441752;88;21569;-83
2022/01/08 06:28:31;;;;;;;181.40;75.32;;;;;;;-2.86;79.40;100562.55;1460735;87;22353;-82
2022/01/08 06:30:57;;;;;;;90.65;46.58;;;;;;;-2.84;79.18;100562.50;1449064;87;21595;-82
2022/01/08 06:33:23;;;;;;;93.95;45.58;;;;;;;-2.82;79.04;100566.73;1447123;87;21497;-83
2022/01/08 06:35:51;;;;;;;95.80;46.68;;;;;;;-2.77;79.01;100567.37;1469519;88;21412;-83
2022/01/08 06:38:19;;;;;;;98.07;39.78;;;;;;;-2.76;79.06;100569.08;1454551;87;21429;-83
2022/01/08 06:40:46;;;;;;;61.70;33.80;;;;;;;-2.78;78.70;100560.51;1443915;87;21627;-83
2022/01/08 06:43:12;;;;;;;64.35;35.03;;;;;;;-2.84;78.14;100564.64;1449635;87;21865;-83
2022/01/08 06:45:39;;;;;;;66.02;34.63;;;;;;;-2.90;78.40;100562.74;1431730;88;22345;-83
2022/01/08 06:48:06;;;;;;;74.85;36.63;;;;;;;-2.95;78.94;100559.02;1430981;90;21432;-81
2022/01/08 06:50:32;;;;;;;66.65;35.38;;;;;;;-2.92;79.25;100560.66;1435859;89;21625;-83
2022/01/08 06:53:11;;;;;;;72.35;36.60;;;;;;;-2.91;79.47;100563.17;1411906;90;21666;-84
2022/01/08 06:55:37;;;;;;;64.17;33.53;;;;;;;-2.92;79.23;100553.72;1424067;90;21518;-85
2022/01/08 06:58:03;;;;;;;71.70;37.10;;;;;;;-2.86;79.52;100563.84;1442729;89;22094;-84
2022/01/08 07:02:59;;;;;;;73.07;39.00;;;;;;;-2.89;79.46;100569.14;1466748;88;23072;-83
2022/01/08 07:05:29;;;;;;;65.57;35.58;;;;;;;-2.89;79.68;100573.48;1445529;87;21439;-83
2022/01/08 07:07:55;;;;;;;67.30;37.60;;;;;;;-2.89;80.41;100566.55;1454345;88;22646;-83
2022/01/08 07:10:30;;;;;;;77.80;40.90;;;;;;;-2.90;79.83;100567.47;1458904;86;21590;-85
2022/01/08 07:12:58;;;;;;;73.45;37.50;;;;;;;-2.86;80.00;100565.14;1442096;87;22662;-85
2022/01/08 07:15:24;;;;;;;64.42;35.40;;;;;;;-2.87;80.24;100569.94;1422160;87;21987;-85
2022/01/08 07:17:50;;;;;;;62.20;36.10;;;;;;;-2.90;80.45;100562.28;1457527;88;22433;-84
2022/01/08 07:20:16;;;;;;;65.28;34.75;;;;;;;-2.86;80.54;100568.19;1438969;88;21429;-84
2022/01/08 07:22:42;;;;;;;65.15;35.65;;;;;;;-2.94;80.59;100563.28;1449048;88;21502;-84
2022/01/08 07:25:10;;;;;;;73.87;37.80;;;;;;;-2.91;80.22;100565.76;1454991;87;22425;-84
2022/01/08 07:27:37;;;;;;;71.60;37.85;;;;;;;-2.86;80.53;100563.00;1445211;87;23103;-83
2022/01/08 07:30:06;;;;;;;69.90;35.38;;;;;;;-2.80;80.56;100561.02;1447986;87;21379;-84
2022/01/08 07:32:42;;;;;;;73.55;39.35;;;;;;;-2.77;81.05;100562.64;1451382;88;21451;-83
2022/01/08 07:35:10;;;;;;;65.15;35.70;;;;;;;-2.75;80.92;100564.73;1440914;88;21650;-83
2022/01/08 07:37:37;;;;;;;70.08;38.15;;;;;;;-2.75;80.27;100568.62;1454721;86;22399;-84
2022/01/08 07:40:05;;;;;;;62.43;33.88;;;;;;;-2.73;80.50;100570.25;1441481;89;21622;-84
2022/01/08 07:42:31;;;;;;;66.62;36.13;;;;;;;-2.76;80.66;100560.01;1444624;90;21609;-84
2022/01/08 07:44:58;;;;;;;63.08;34.50;;;;;;;-2.75;80.46;100559.09;1442107;90;21473;-84
2022/01/08 07:47:24;;;;;;;61.80;34.18;;;;;;;-2.80;80.54;100556.29;1424398;91;22547;-83
2022/01/08 07:49:50;;;;;;;66.12;35.92;;;;;;;-2.81;80.88;100551.56;1414952;90;21465;-83
2022/01/08 07:52:16;;;;;;;58.15;33.05;;;;;;;-2.82;80.82;100555.07;1430122;89;21588;-84
2022/01/08 07:54:43;;;;;;;63.13;30.60;;;;;;;-2.81;81.24;100554.61;1428298;90;21422;-84
2022/01/08 07:57:09;;;;;;;62.90;32.45;;;;;;;-2.79;81.12;100560.13;1440771;88;21548;-84
2022/01/08 07:59:35;;;;;;;63.05;34.03;;;;;;;-2.78;81.59;100560.97;1435664;89;22321;-84
2022/01/08 08:02:02;;;;;;;57.70;34.65;;;;;;;-2.81;81.21;100556.75;1461229;87;21473;-83
2022/01/08 08:04:28;;;;;;;61.53;35.73;;;;;;;-2.77;81.17;100558.30;1451938;86;21554;-83
2022/01/08 08:06:55;;;;;;;60.15;33.48;;;;;;;-2.69;81.37;100561.89;1461756;88;21414;-83
2022/01/08 08:09:21;;;;;;;67.32;34.78;;;;;;;-2.63;81.25;100554.34;1468457;88;22374;-84
2022/01/08 08:11:47;;;;;;;108.52;57.08;;;;;;;-2.64;80.62;100553.50;1452613;87;21561;-84
2022/01/08 08:14:16;;;;;;;82.65;44.88;;;;;;;-2.60;81.22;100552.92;1454250;87;21487;-80
2022/01/08 08:16:42;;;;;;;87.20;43.68;;;;;;;-2.61;80.34;100553.83;1454488;88;22472;-81
2022/01/08 08:19:08;;;;;;;69.90;36.68;;;;;;;-2.59;80.88;100550.70;1466300;88;21450;-80
2022/01/08 08:21:35;;;;;;;81.67;44.00;;;;;;;-2.56;80.68;100554.47;1465432;87;21391;-81
2022/01/08 08:24:03;;;;;;;89.83;46.05;;;;;;;-2.51;80.53;100556.44;1446117;89;21400;-83
2022/01/08 08:26:30;;;;;;;71.25;38.20;;;;;;;-2.45;80.51;100550.16;1442474;89;22501;-82
2022/01/08 08:28:56;;;;;;;75.30;38.58;;;;;;;-2.38;80.38;100552.45;1431648;89;21371;-83
2022/01/08 08:31:22;;;;;;;66.00;33.70;;;;;;;-2.33;80.20;100549.66;1414559;91;21436;-82
2022/01/08 08:33:48;;;;;;;61.20;34.43;;;;;;;-2.31;79.52;100550.44;1455589;87;21614;-82
2022/01/08 08:36:14;;;;;;;61.25;36.50;;;;;;;-2.35;79.59;100560.10;1449618;88;21527;-82
2022/01/08 08:38:41;;;;;;;71.92;37.10;;;;;;;-2.33;79.65;100549.66;1438129;88;22448;-82
2022/01/08 08:41:07;;;;;;;84.03;43.10;;;;;;;-2.33;79.36;100547.06;1457956;87;21458;-82
2022/01/08 08:43:33;;;;;;;149.10;60.52;;;;;;;-2.29;79.84;100539.56;1440235;89;21570;-83
2022/01/08 08:45:59;;;;;;;80.38;39.90;;;;;;;-2.23;79.67;100533.29;1418747;90;21678;-82
2022/01/08 08:48:26;;;;;;;66.37;35.90;;;;;;;-2.17;79.70;100526.55;1428228;89;21451;-83
2022/01/08 08:50:53;;;;;;;192.03;76.47;;;;;;;-2.13;80.36;100528.95;1415854;90;21690;-83
2022/01/08 08:53:19;;;;;;;205.22;80.35;;;;;;;-2.11;79.59;100524.98;1434643;89;21428;-84
2022/01/08 08:55:48;;;;;;;193.43;78.25;;;;;;;-2.12;79.58;100529.80;1453417;88;22355;-85
2022/01/08 08:58:16;;;;;;;258.90;92.00;;;;;;;-2.08;79.31;100527.45;1453579;88;21459;-85
2022/01/08 09:00:43;;;;;;;113.10;48.08;;;;;;;-2.03;79.51;100526.80;1451047;88;21779;-86
2022/01/08 09:03:09;;;;;;;106.20;46.83;;;;;;;-1.98;79.44;100524.87;1447508;88;21546;-85
2022/01/08 09:05:36;;;;;;;91.53;44.20;;;;;;;-1.95;79.44;100522.14;1416523;90;21497;-85
2022/01/08 09:08:04;;;;;;;76.40;41.75;;;;;;;-1.90;79.63;100513.71;1420951;90;21583;-85
2022/01/08 09:10:32;;;;;;;78.60;42.38;;;;;;;-1.84;79.22;100504.82;1412921;91;21487;-85
2022/01/08 09:13:00;;;;;;;84.35;41.65;;;;;;;-1.78;79.15;100499.79;1415051;90;21458;-86
2022/01/08 09:15:27;;;;;;;127.53;54.48;;;;;;;-1.78;78.86;100495.90;1456728;87;21639;-84
2022/01/08 09:17:57;;;;;;;122.78;61.25;;;;;;;-1.73;78.80;100494.78;1454004;87;21598;-85
2022/01/08 09:20:28;;;;;;;170.40;86.90;;;;;;;-1.71;78.93;100488.25;1447763;88;22441;-85
2022/01/08 09:22:56;;;;;;;166.57;79.30;;;;;;;-1.70;78.86;100486.03;1449616;87;23489;-81
2022/01/08 09:25:22;;;;;;;156.22;80.67;;;;;;;-1.68;78.78;100475.97;1445980;87;21547;-81
2022/01/08 09:27:49;;;;;;;97.05;53.80;;;;;;;-1.63;78.94;100474.02;1459413;87;21619;-81
2022/01/08 09:30:15;;;;;;;69.60;41.53;;;;;;;-1.60;78.76;100473.88;1456582;88;22556;-81
2022/01/08 09:32:44;;;;;;;68.80;37.80;;;;;;;-1.53;78.81;100471.00;1459738;88;21547;-81
2022/01/08 09:35:15;;;;;;;62.73;34.70;;;;;;;-1.49;78.58;100470.80;1457575;87;21369;-81
2022/01/08 09:37:41;;;;;;;;;;;;;;;-1.44;78.38;100471.45;1450580;88;21662;-81
2022/01/08 09:40:12;;;;;;;69.97;36.30;;;;;;;-1.38;78.43;100466.42;1449994;88;20871;-81
2022/01/08 09:42:42;;;;;;;66.15;36.45;;;;;;;-1.34;78.32;100459.33;1455584;87;22315;-81
2022/01/08 09:45:14;;;;;;;71.20;38.30;;;;;;;-1.32;78.09;100457.48;1434308;87;21537;-82
2022/01/08 09:47:40;;;;;;;77.12;39.38;;;;;;;-1.34;77.85;100459.33;1440283;89;21547;-82
2022/01/08 09:50:08;;;;;;;90.20;46.53;;;;;;;-1.31;77.71;100463.08;1445256;89;21481;-82
2022/01/08 09:52:34;;;;;;;66.50;37.05;;;;;;;-1.34;77.59;100454.97;1440566;88;21429;-81
2022/01/08 09:55:00;;;;;;;78.22;42.53;;;;;;;-1.31;77.81;100446.20;1435454;88;22113;-81
2022/01/08 09:57:26;;;;;;;86.70;45.12;;;;;;;-1.25;77.91;100447.21;1461071;88;21493;-81
2022/01/08 09:59:53;;;;;;;98.97;49.70;;;;;;;-1.22;77.81;100450.50;1441360;88;21457;-81
2022/01/08 10:02:23;;;;;;;63.95;37.13;;;;;;;-1.21;77.84;100447.44;1449818;88;22449;-81
2022/01/08 10:04:51;;;;;;;65.75;37.38;;;;;;;-1.17;77.69;100444.64;1455797;88;22486;-81
2022/01/08 10:07:26;;;;;;;66.87;37.63;;;;;;;-1.12;77.56;100437.94;1453724;88;21466;-81
2022/01/08 10:10:17;;;;;;;61.95;36.05;;;;;;;-1.09;77.23;100440.39;1423362;90;21577;-81
2022/01/08 10:13:01;;;;;;;76.65;38.28;;;;;;;-1.06;77.13;100437.64;1401630;90;21464;-81
2022/01/08 10:18:38;;;;;;;68.78;36.53;;;;;;;-0.97;76.99;100431.16;1403858;90;21921;-81
2022/01/08 10:21:20;;;;;;;103.45;53.68;;;;;;;-1.00;76.10;100428.72;1432275;89;22715;-82
2022/01/08 10:24:04;;;;;;;61.83;36.30;;;;;;;-1.08;76.12;100430.37;1413007;91;22321;-82
2022/01/08 10:26:41;;;;;;;64.20;37.28;;;;;;;-1.07;76.38;100430.74;1413641;90;21538;-82
2022/01/08 10:29:21;;;;;;;60.90;36.83;;;;;;;-1.05;76.41;100431.52;1417264;89;21471;-81
2022/01/08 10:31:52;;;;;;;59.55;34.98;;;;;;;-1.06;76.46;100432.45;1454222;87;22500;-83
2022/01/08 10:34:26;;;;;;;53.08;30.95;;;;;;;-1.07;76.79;100425.55;1449787;87;22405;-81
2022/01/08 10:37:00;;;;;;;63.33;34.53;;;;;;;-1.09;76.93;100430.00;1446259;88;21487;-81
2022/01/08 10:39:39;;;;;;;72.65;35.23;;;;;;;-1.08;76.71;100423.87;1458795;87;21460;-83
2022/01/08 10:42:17;;;;;;;53.60;30.15;;;;;;;-1.15;78.22;100422.50;1438186;90;21562;-88
2022/01/08 10:44:47;;;;;;;58.13;29.63;;;;;;;-1.08;79.75;100410.89;1443171;89;21559;-87
2022/01/08 10:47:21;;;;;;;51.05;31.42;;;;;;;-1.04;81.55;100409.81;1426127;89;21687;-83
2022/01/08 10:50:00;;;;;;;56.23;33.38;;;;;;;-0.95;80.75;100403.33;1403121;91;22404;-83
2022/01/08 10:52:27;;;;;;;59.23;33.07;;;;;;;-0.86;79.31;100396.84;1406596;90;21633;-84
2022/01/08 10:54:59;;;;;;;58.83;36.65;;;;;;;-0.75;78.53;100399.31;1413504;90;23371;-84
2022/01/08 10:57:37;;;;;;;63.83;37.93;;;;;;;-0.69;77.63;100396.87;1415740;90;21512;-84
2022/01/08 11:00:11;;;;;;;79.42;44.58;;;;;;;-0.65;76.96;100394.48;1453610;87;21488;-83
2022/01/08 11:02:39;;;;;;;72.53;39.77;;;;;;;-0.56;76.82;100384.09;1464888;88;22361;-84
2022/01/08 11:05:08;;;;;;;67.20;39.40;;;;;;;-0.46;76.94;100375.75;1441893;89;21841;-83
2022/01/08 11:07:36;;;;;;;62.30;36.20;;;;;;;-0.33;76.75;100375.11;1454901;87;21458;-83
2022/01/08 11:10:07;;;;;;;71.10;38.80;;;;;;;-0.29;75.88;100370.11;1464223;87;22103;-83
2022/01/08 11:12:40;;;;;;;67.57;35.63;;;;;;;-0.30;75.29;100369.75;1446082;88;22471;-84
2022/01/08 11:17:47;;;;;;;72.30;41.00;;;;;;;-0.24;75.46;100370.72;1432395;89;21629;-84
2022/01/08 11:20:23;;;;;;;61.98;35.75;;;;;;;-0.17;75.69;100374.70;1429267;88;21670;-82
2022/01/08 11:25:31;;;;;;;61.63;36.27;;;;;;;-0.15;74.94;100367.63;1402921;91;21769;-82
2022/01/08 11:28:09;;;;;;;70.10;38.30;;;;;;;-0.13;75.15;100369.70;1418842;90;21579;-84
2022/01/08 11:30:43;;;;;;;82.87;45.83;;;;;;;-0.10;75.15;100367.41;1409398;91;21746;-82
2022/01/08 11:33:18;;;;;;;78.13;42.33;;;;;;;-0.15;74.89;100368.93;1405355;91;21846;-83
2022/01/08 11:35:46;;;;;;;63.83;35.33;;;;;;;-0.17;75.04;100367.33;1424417;90;21644;-84
2022/01/08 11:38:21;;;;;;;68.43;36.53;;;;;;;-0.20;74.86;100372.69;1448594;87;22513;-82
2022/01/08 11:40:51;;;;;;;61.50;36.97;;;;;;;-0.28;74.76;100377.02;1429352;88;21441;-82
2022/01/08 11:43:22;;;;;;;72.20;36.63;;;;;;;-0.46;74.84;100372.31;1450358;88;21793;-82
2022/01/08 11:45:55;;;;;;;63.63;32.88;;;;;;;-0.54;75.07;100370.09;1396204;89;21542;-81